createdAt,value
2023-04-15T00:00:34.400Z,6.46
2023-04-15T00:01:37.309Z,6.47
2023-04-15T00:02:39.259Z,6.47
2023-04-15T00:03:42.198Z,6.45
2023-04-15T00:04:44.491Z,6.43
2023-04-15T00:05:47.258Z,6.43
2023-04-15T00:06:53.157Z,6.41
2023-04-15T00:07:55.947Z,6.40
2023-04-15T00:08:57.692Z,6.40
2023-04-15T00:10:00.648Z,6.39
2023-04-15T00:11:05.993Z,6.37
2023-04-15T00:12:09.032Z,6.35
2023-04-15T00:13:10.769Z,6.33
2023-04-15T00:14:13.430Z,6.31
2023-04-15T00:15:15.414Z,6.29
2023-04-15T00:16:18.206Z,6.27
2023-04-15T00:17:19.973Z,6.25
2023-04-15T00:18:23.317Z,6.22
2023-04-15T00:19:25.419Z,6.21
2023-04-15T00:20:28.139Z,6.18
2023-04-15T00:21:29.941Z,6.18
2023-04-15T00:22:32.593Z,6.16
2023-04-15T00:23:34.309Z,6.11
2023-04-15T00:24:37.046Z,6.13
2023-04-15T00:25:38.679Z,6.11
2023-04-15T00:26:42.697Z,6.07
2023-04-15T00:27:44.457Z,6.05
2023-04-15T00:28:47.347Z,6.01
2023-04-15T00:29:49.069Z,5.99
2023-04-15T00:30:51.751Z,5.93
2023-04-15T00:31:53.537Z,5.89
2023-04-15T00:32:56.477Z,5.85
2023-04-15T00:33:58.538Z,5.81
2023-04-15T00:35:01.226Z,5.76
2023-04-15T00:36:03.643Z,5.72
2023-04-15T00:37:06.422Z,5.67
2023-04-15T00:38:08.368Z,5.65
2023-04-15T00:39:11.063Z,5.61
2023-04-15T00:40:13.641Z,5.58
2023-04-15T00:41:16.438Z,5.55
2023-04-15T00:42:20.194Z,5.55
2023-04-15T00:43:22.894Z,5.52
2023-04-15T00:44:24.693Z,5.50
2023-04-15T00:45:30.185Z,5.49
2023-04-15T00:46:32.525Z,5.48
2023-04-15T00:47:37.252Z,5.46
2023-04-15T00:48:39.275Z,5.44
2023-04-15T00:49:42.189Z,5.42
2023-04-15T00:50:43.836Z,5.41
2023-04-15T00:51:46.790Z,5.39
2023-04-15T00:52:48.726Z,5.37
2023-04-15T00:53:51.888Z,5.36
2023-04-15T00:54:53.669Z,5.36
2023-04-15T00:55:56.980Z,5.34
2023-04-15T00:57:00.740Z,5.33
2023-04-15T00:58:03.798Z,5.32
2023-04-15T00:59:07.785Z,5.31
2023-04-15T01:00:11.812Z,5.29
2023-04-15T01:01:14.783Z,5.27
2023-04-15T01:02:16.961Z,5.24
2023-04-15T01:03:19.833Z,5.22
2023-04-15T01:04:21.722Z,5.17
2023-04-15T01:05:25.082Z,5.16
2023-04-15T01:06:27.571Z,5.12
2023-04-15T01:07:30.280Z,5.10
2023-04-15T01:08:31.958Z,5.10
2023-04-15T01:09:34.747Z,5.08
2023-04-15T01:10:36.520Z,5.08
2023-04-15T01:11:39.902Z,5.10
2023-04-15T01:12:42.493Z,5.08
2023-04-15T01:13:47.562Z,5.09
2023-04-15T01:14:49.316Z,5.10
2023-04-15T01:15:52.653Z,5.08
2023-04-15T01:16:54.309Z,5.08
2023-04-15T01:17:58.182Z,5.07
2023-04-15T01:19:00.749Z,5.06
2023-04-15T01:20:05.187Z,5.03
2023-04-15T01:21:07.123Z,5.02
2023-04-15T01:22:10.096Z,5.01
2023-04-15T01:23:12.095Z,5.01
2023-04-15T01:24:17.646Z,5.01
2023-04-15T01:25:19.783Z,5.01
2023-04-15T01:26:24.302Z,5.00
2023-04-15T01:27:26.025Z,4.99
2023-04-15T01:28:28.733Z,4.99
2023-04-15T01:29:31.730Z,4.98
2023-04-15T01:30:35.736Z,4.96
2023-04-15T01:31:37.566Z,4.93
2023-04-15T01:32:40.539Z,4.93
2023-04-15T01:33:43.325Z,4.91
2023-04-15T01:34:46.092Z,4.88
2023-04-15T01:35:47.885Z,4.85
2023-04-15T01:36:50.585Z,4.82
2023-04-15T01:37:52.573Z,4.78
2023-04-15T01:38:55.881Z,4.75
2023-04-15T01:39:58.069Z,4.71
2023-04-15T01:41:00.791Z,4.68
2023-04-15T01:42:04.231Z,4.67
2023-04-15T01:43:07.294Z,4.65
2023-04-15T01:44:09.189Z,4.62
2023-04-15T01:45:12.570Z,4.61
2023-04-15T01:46:15.250Z,4.58
2023-04-15T01:47:17.088Z,4.56
2023-04-15T01:48:19.791Z,4.54
2023-04-15T01:49:21.511Z,4.54
2023-04-15T01:50:24.173Z,4.51
2023-04-15T01:51:25.848Z,4.50
2023-04-15T01:52:28.524Z,4.47
2023-04-15T01:53:30.194Z,4.43
2023-04-15T01:54:33.005Z,4.41
2023-04-15T01:55:34.701Z,4.37
2023-04-15T01:56:37.372Z,4.36
2023-04-15T01:57:40.519Z,4.35
2023-04-15T01:58:43.168Z,4.33
2023-04-15T01:59:44.878Z,4.33
2023-04-15T02:00:47.984Z,4.31
2023-04-15T02:01:49.737Z,4.31
2023-04-15T02:02:52.532Z,4.30
2023-04-15T02:03:54.296Z,4.29
2023-04-15T02:04:57.007Z,4.28
2023-04-15T02:05:58.770Z,4.26
2023-04-15T02:07:04.065Z,4.26
2023-04-15T02:08:06.089Z,4.26
2023-04-15T02:09:09.194Z,4.26
2023-04-15T02:10:13.091Z,4.25
2023-04-15T02:11:15.759Z,4.25
2023-04-15T02:12:17.409Z,4.25
2023-04-15T02:13:21.485Z,4.26
2023-04-15T02:14:23.315Z,4.25
2023-04-15T02:15:26.122Z,4.26
2023-04-15T02:16:28.818Z,4.26
2023-04-15T02:17:30.604Z,4.26
2023-04-15T02:18:33.297Z,4.26
2023-04-15T02:19:35.467Z,4.25
2023-04-15T02:20:38.161Z,4.25
2023-04-15T02:21:40.105Z,4.24
2023-04-15T02:22:42.763Z,4.23
2023-04-15T02:23:44.531Z,4.25
2023-04-15T02:24:47.680Z,4.26
2023-04-15T02:25:53.296Z,4.27
2023-04-15T02:26:57.372Z,4.29
2023-04-15T02:27:59.101Z,4.30
2023-04-15T02:29:03.199Z,4.32
2023-04-15T02:30:05.966Z,4.33
2023-04-15T02:31:09.608Z,4.35
2023-04-15T02:32:11.822Z,4.34
2023-04-15T02:33:14.545Z,4.35
2023-04-15T02:34:16.624Z,4.37
2023-04-15T02:35:19.941Z,4.38
2023-04-15T02:36:21.715Z,4.37
2023-04-15T02:37:27.228Z,4.37
2023-04-15T02:38:30.998Z,4.36
2023-04-15T02:39:32.900Z,4.35
2023-04-15T02:40:35.603Z,4.34
2023-04-15T02:41:37.349Z,4.32
2023-04-15T02:42:40.137Z,4.30
2023-04-15T02:43:41.895Z,4.29
2023-04-15T02:44:45.999Z,4.27
2023-04-15T02:45:48.572Z,4.26
2023-04-15T02:46:52.772Z,4.25
2023-04-15T02:47:54.891Z,4.22
2023-04-15T02:48:59.817Z,4.20
2023-04-15T02:50:03.221Z,4.18
2023-04-15T02:51:15.891Z,4.16
2023-04-15T02:52:17.606Z,4.14
2023-04-15T02:53:20.910Z,4.13
2023-04-15T02:54:23.046Z,4.12
2023-04-15T02:55:25.865Z,4.11
2023-04-15T02:56:27.638Z,4.08
2023-04-15T02:57:30.342Z,4.08
2023-04-15T02:58:32.065Z,4.08
2023-04-15T02:59:34.895Z,4.09
2023-04-15T03:00:38.011Z,4.07
2023-04-15T03:01:40.728Z,4.07
2023-04-15T03:02:43.132Z,4.05
2023-04-15T03:03:46.175Z,4.05
2023-04-15T03:04:47.905Z,4.04
2023-04-15T03:05:50.632Z,4.05
2023-04-15T03:06:52.322Z,4.03
2023-04-15T03:07:55.088Z,4.02
2023-04-15T03:08:56.960Z,4.02
2023-04-15T03:09:59.615Z,4.00
2023-04-15T03:11:02.647Z,4.01
2023-04-15T03:12:05.341Z,4.01
2023-04-15T03:13:07.089Z,3.99
2023-04-15T03:14:09.807Z,3.99
2023-04-15T03:15:12.147Z,4.00
2023-04-15T03:16:16.413Z,4.00
2023-04-15T03:17:18.243Z,4.02
2023-04-15T03:18:21.500Z,4.02
2023-04-15T03:19:23.188Z,4.01
2023-04-15T03:20:25.892Z,4.02
2023-04-15T03:21:27.769Z,4.04
2023-04-15T03:22:30.538Z,4.04
2023-04-15T03:23:32.282Z,4.05
2023-04-15T03:24:35.006Z,4.03
2023-04-15T03:25:37.450Z,4.04
2023-04-15T03:26:40.227Z,4.06
2023-04-15T03:27:41.989Z,4.04
2023-04-15T03:28:44.701Z,4.03
2023-04-15T03:29:46.353Z,4.03
2023-04-15T03:30:49.039Z,4.03
2023-04-15T03:31:52.576Z,4.05
2023-04-15T03:32:55.376Z,4.05
2023-04-15T03:33:57.118Z,4.05
2023-04-15T03:34:59.826Z,4.05
2023-04-15T03:36:01.564Z,4.06
2023-04-15T03:37:04.279Z,4.06
2023-04-15T03:38:06.006Z,4.06
2023-04-15T03:39:08.706Z,4.08
2023-04-15T03:40:11.510Z,4.08
2023-04-15T03:41:14.376Z,4.10
2023-04-15T03:42:16.584Z,4.12
2023-04-15T03:43:19.294Z,4.13
2023-04-15T03:44:20.956Z,4.13
2023-04-15T03:45:23.683Z,4.15
2023-04-15T03:46:25.643Z,4.14
2023-04-15T03:47:29.713Z,4.16
2023-04-15T03:48:31.528Z,4.16
2023-04-15T03:49:34.347Z,4.19
2023-04-15T03:50:36.098Z,4.21
2023-04-15T03:51:38.802Z,4.22
2023-04-15T03:52:40.628Z,4.22
2023-04-15T03:53:43.371Z,4.22
2023-04-15T03:54:45.038Z,4.22
2023-04-15T03:55:47.764Z,4.23
2023-04-15T03:56:49.456Z,4.21
2023-04-15T03:57:52.085Z,4.19
2023-04-15T03:58:53.882Z,4.19
2023-04-15T03:59:56.539Z,4.18
2023-04-15T04:00:58.261Z,4.17
2023-04-15T04:02:01.292Z,4.17
2023-04-15T04:03:04.487Z,4.16
2023-04-15T04:04:07.535Z,4.13
2023-04-15T04:05:10.521Z,4.09
2023-04-15T04:06:13.425Z,4.07
2023-04-15T04:07:16.364Z,4.06
2023-04-15T04:08:19.625Z,4.03
2023-04-15T04:09:21.723Z,4.02
2023-04-15T04:10:24.600Z,3.97
2023-04-15T04:11:26.447Z,3.94
2023-04-15T04:12:29.250Z,3.89
2023-04-15T04:13:31.150Z,3.86
2023-04-15T04:14:33.845Z,3.82
2023-04-15T04:15:35.712Z,3.79
2023-04-15T04:16:38.378Z,3.79
2023-04-15T04:17:40.187Z,3.79
2023-04-15T04:18:44.283Z,3.79
2023-04-15T04:19:46.421Z,3.79
2023-04-15T04:20:49.195Z,3.80
2023-04-15T04:21:51.635Z,3.80
2023-04-15T04:22:54.323Z,3.80
2023-04-15T04:23:56.819Z,3.81
2023-04-15T04:25:00.527Z,3.82
2023-04-15T04:26:02.618Z,3.81
2023-04-15T04:27:05.493Z,3.82
2023-04-15T04:28:07.332Z,3.83
2023-04-15T04:29:10.076Z,3.82
2023-04-15T04:30:12.629Z,3.80
2023-04-15T04:31:15.364Z,3.79
2023-04-15T04:32:17.376Z,3.78
2023-04-15T04:33:20.306Z,3.79
2023-04-15T04:34:23.373Z,3.79
2023-04-15T04:35:26.112Z,3.79
2023-04-15T04:36:28.120Z,3.79
2023-04-15T04:37:30.915Z,3.79
2023-04-15T04:38:33.010Z,3.77
2023-04-15T04:39:35.913Z,3.75
2023-04-15T04:40:37.584Z,3.75
2023-04-15T04:41:40.283Z,3.75
2023-04-15T04:42:41.991Z,3.75
2023-04-15T04:43:44.627Z,3.76
2023-04-15T04:44:46.370Z,3.75
2023-04-15T04:45:49.277Z,3.75
2023-04-15T04:46:51.056Z,3.74
2023-04-15T04:47:53.855Z,3.74
2023-04-15T04:48:55.577Z,3.75
2023-04-15T04:49:59.578Z,3.77
2023-04-15T04:51:01.252Z,3.77
2023-04-15T04:52:03.980Z,3.78
2023-04-15T04:53:05.965Z,3.80
2023-04-15T04:54:08.665Z,3.81
2023-04-15T04:55:10.692Z,3.82
2023-04-15T04:56:13.355Z,3.83
2023-04-15T04:57:15.059Z,3.84
2023-04-15T04:58:17.752Z,3.85
2023-04-15T04:59:19.576Z,3.84
2023-04-15T05:00:22.870Z,3.85
2023-04-15T05:01:24.610Z,3.82
2023-04-15T05:02:28.126Z,3.83
2023-04-15T05:03:31.355Z,3.84
2023-04-15T05:04:33.081Z,3.85
2023-04-15T05:05:39.457Z,3.86
2023-04-15T05:06:41.258Z,3.88
2023-04-15T05:07:44.007Z,3.91
2023-04-15T05:08:47.060Z,3.91
2023-04-15T05:09:49.768Z,3.93
2023-04-15T05:10:51.562Z,3.94
2023-04-15T05:11:54.241Z,3.95
2023-04-15T05:12:55.982Z,3.96
2023-04-15T05:13:59.728Z,3.97
2023-04-15T05:15:01.415Z,3.98
2023-04-15T05:16:04.162Z,4.00
2023-04-15T05:17:05.908Z,4.01
2023-04-15T05:18:08.597Z,4.01
2023-04-15T05:19:10.425Z,4.04
2023-04-15T05:20:14.435Z,4.05
2023-04-15T05:21:17.569Z,4.07
2023-04-15T05:22:20.227Z,4.10
2023-04-15T05:23:22.002Z,4.11
2023-04-15T05:24:24.876Z,4.11
2023-04-15T05:25:28.207Z,4.13
2023-04-15T05:26:29.929Z,4.14
2023-04-15T05:27:32.606Z,4.15
2023-04-15T05:28:34.389Z,4.17
2023-04-15T05:29:37.228Z,4.18
2023-04-15T05:30:39.550Z,4.21
2023-04-15T05:31:42.373Z,4.21
2023-04-15T05:32:44.404Z,4.22
2023-04-15T05:33:47.077Z,4.23
2023-04-15T05:34:48.799Z,4.26
2023-04-15T05:35:51.742Z,4.29
2023-04-15T05:36:54.753Z,4.30
2023-04-15T05:37:57.873Z,4.32
2023-04-15T05:38:59.767Z,4.33
2023-04-15T05:40:02.820Z,4.34
2023-04-15T05:41:04.550Z,4.34
2023-04-15T05:42:07.564Z,4.34
2023-04-15T05:43:09.232Z,4.36
2023-04-15T05:44:11.910Z,4.39
2023-04-15T05:45:13.714Z,4.41
2023-04-15T05:46:16.523Z,4.43
2023-04-15T05:47:18.385Z,4.45
2023-04-15T05:48:21.404Z,4.48
2023-04-15T05:49:23.233Z,4.51
2023-04-15T05:50:25.885Z,4.53
2023-04-15T05:51:27.828Z,4.55
2023-04-15T05:52:32.409Z,4.57
2023-04-15T05:53:34.108Z,4.61
2023-04-15T05:54:37.231Z,4.61
2023-04-15T05:55:38.973Z,4.65
2023-04-15T05:56:41.715Z,4.67
2023-04-15T05:57:43.386Z,4.69
2023-04-15T05:58:46.329Z,4.72
2023-04-15T05:59:48.090Z,4.75
2023-04-15T06:00:51.275Z,4.78
2023-04-15T06:01:53.070Z,4.81
2023-04-15T06:02:55.876Z,4.86
2023-04-15T06:03:57.829Z,4.89
2023-04-15T06:05:00.942Z,4.93
2023-04-15T06:06:02.768Z,4.98
2023-04-15T06:07:05.480Z,5.01
2023-04-15T06:08:08.592Z,5.04
2023-04-15T06:09:11.279Z,5.06
2023-04-15T06:10:13.080Z,5.06
2023-04-15T06:11:15.958Z,5.06
2023-04-15T06:12:17.661Z,5.02
2023-04-15T06:13:20.378Z,4.99
2023-04-15T06:14:22.066Z,4.95
2023-04-15T06:15:24.903Z,4.94
2023-04-15T06:16:27.370Z,4.92
2023-04-15T06:17:30.088Z,4.92
2023-04-15T06:18:32.754Z,4.94
2023-04-15T06:19:34.971Z,4.94
2023-04-15T06:20:37.750Z,4.96
2023-04-15T06:21:39.495Z,4.95
2023-04-15T06:22:42.197Z,4.94
2023-04-15T06:23:45.305Z,4.95
2023-04-15T06:24:48.016Z,4.97
2023-04-15T06:25:49.749Z,5.00
2023-04-15T06:26:52.413Z,5.04
2023-04-15T06:27:54.139Z,5.05
2023-04-15T06:28:57.049Z,5.11
2023-04-15T06:29:58.923Z,5.16
2023-04-15T06:31:02.426Z,5.21
2023-04-15T06:32:04.129Z,5.26
2023-04-15T06:33:07.417Z,5.32
2023-04-15T06:34:11.142Z,5.37
2023-04-15T06:35:12.846Z,5.41
2023-04-15T06:36:15.616Z,5.45
2023-04-15T06:37:17.442Z,5.49
2023-04-15T06:38:20.099Z,5.52
2023-04-15T06:39:23.206Z,5.55
2023-04-15T06:40:25.991Z,5.59
2023-04-15T06:41:27.971Z,5.61
2023-04-15T06:42:30.615Z,5.64
2023-04-15T06:43:32.402Z,5.69
2023-04-15T06:44:35.109Z,5.72
2023-04-15T06:45:36.831Z,5.76
2023-04-15T06:46:39.627Z,5.80
2023-04-15T06:47:41.831Z,5.84
2023-04-15T06:48:44.637Z,5.88
2023-04-15T06:49:46.403Z,5.88
2023-04-15T06:50:49.142Z,5.89
2023-04-15T06:51:51.609Z,5.92
2023-04-15T06:52:55.029Z,5.96
2023-04-15T06:53:57.169Z,6.00
2023-04-15T06:55:02.262Z,6.05
2023-04-15T06:56:04.225Z,6.10
2023-04-15T06:57:07.204Z,6.16
2023-04-15T06:58:08.927Z,6.23
2023-04-15T06:59:11.686Z,6.28
2023-04-15T07:00:14.243Z,6.34
2023-04-15T07:01:17.258Z,6.38
2023-04-15T07:02:19.262Z,6.45
2023-04-15T07:03:22.499Z,6.51
2023-04-15T07:04:24.469Z,6.56
2023-04-15T07:05:27.937Z,6.61
2023-04-15T07:06:29.628Z,6.67
2023-04-15T07:07:32.295Z,6.75
2023-04-15T07:08:34.087Z,6.83
2023-04-15T07:09:36.888Z,6.88
2023-04-15T07:10:39.965Z,6.93
2023-04-15T07:11:43.012Z,6.99
2023-04-15T07:12:44.653Z,7.04
2023-04-15T07:13:47.455Z,7.12
2023-04-15T07:14:49.608Z,7.19
2023-04-15T07:15:52.346Z,7.27
2023-04-15T07:16:54.045Z,7.36
2023-04-15T07:17:56.837Z,7.45
2023-04-15T07:18:58.488Z,7.55
2023-04-15T07:20:01.132Z,7.62
2023-04-15T07:21:02.933Z,7.70
2023-04-15T07:22:05.608Z,7.78
2023-04-15T07:23:08.000Z,7.84
2023-04-15T07:24:11.409Z,7.92
2023-04-15T07:25:13.090Z,7.97
2023-04-15T07:26:17.387Z,8.02
2023-04-15T07:27:19.123Z,8.07
2023-04-15T07:28:21.905Z,8.11
2023-04-15T07:29:23.636Z,8.14
2023-04-15T07:30:26.521Z,8.20
2023-04-15T07:31:29.391Z,8.26
2023-04-15T07:32:32.087Z,8.34
2023-04-15T07:33:33.862Z,8.40
2023-04-15T07:34:36.576Z,8.48
2023-04-15T07:35:38.302Z,8.56
2023-04-15T07:36:41.272Z,8.64
2023-04-15T07:37:43.428Z,8.74
2023-04-15T07:38:46.126Z,8.81
2023-04-15T07:39:47.993Z,8.90
2023-04-15T07:40:50.940Z,8.99
2023-04-15T07:41:54.995Z,9.09
2023-04-15T07:42:58.292Z,9.18
2023-04-15T07:44:01.046Z,9.27
2023-04-15T07:45:03.939Z,9.36
2023-04-15T07:46:05.983Z,9.45
2023-04-15T07:47:08.728Z,9.53
2023-04-15T07:48:11.431Z,9.62
2023-04-15T07:49:14.431Z,9.70
2023-04-15T07:50:17.325Z,9.80
2023-04-15T07:51:21.045Z,9.90
2023-04-15T07:52:22.784Z,10.00
2023-04-15T07:53:26.134Z,10.07
2023-04-15T07:54:27.842Z,10.16
2023-04-15T07:55:30.736Z,10.24
2023-04-15T07:56:32.812Z,10.28
2023-04-15T07:57:37.035Z,10.35
2023-04-15T07:58:39.912Z,10.40
2023-04-15T07:59:41.822Z,10.44
2023-04-15T08:00:44.771Z,10.45
2023-04-15T08:01:47.471Z,10.47
2023-04-15T08:02:49.912Z,10.50
2023-04-15T08:03:53.241Z,10.54
2023-04-15T08:04:55.147Z,10.59
2023-04-15T08:05:57.923Z,10.66
2023-04-15T08:07:00.624Z,10.71
2023-04-15T08:08:02.907Z,10.79
2023-04-15T08:09:05.727Z,10.85
2023-04-15T08:10:09.474Z,10.91
2023-04-15T08:11:11.532Z,10.98
2023-04-15T08:12:14.898Z,11.07
2023-04-15T08:13:18.002Z,11.11
2023-04-15T08:14:21.038Z,11.13
2023-04-15T08:15:23.442Z,11.17
2023-04-15T08:16:27.907Z,11.19
2023-04-15T08:17:29.888Z,11.18
2023-04-15T08:18:32.533Z,11.17
2023-04-15T08:19:35.608Z,11.15
2023-04-15T08:20:37.611Z,11.13
2023-04-15T08:21:40.678Z,11.13
2023-04-15T08:22:43.609Z,11.12
2023-04-15T08:23:46.782Z,11.11
2023-04-15T08:24:49.447Z,11.10
2023-04-15T08:25:51.286Z,11.09
2023-04-15T08:26:54.637Z,11.09
2023-04-15T08:27:57.607Z,11.08
2023-04-15T08:29:02.020Z,11.10
2023-04-15T08:30:05.172Z,11.13
2023-04-15T08:31:08.138Z,11.14
2023-04-15T08:32:10.904Z,11.18
2023-04-15T08:33:13.161Z,11.17
2023-04-15T08:34:16.065Z,11.18
2023-04-15T08:35:18.178Z,11.20
2023-04-15T08:36:21.097Z,11.23
2023-04-15T08:37:23.230Z,11.26
2023-04-15T08:38:25.911Z,11.30
2023-04-15T08:39:28.663Z,11.32
2023-04-15T08:40:40.308Z,11.36
2023-04-15T08:41:47.809Z,11.38
2023-04-15T08:42:50.329Z,11.38
2023-04-15T08:43:59.109Z,11.37
2023-04-15T08:45:04.672Z,11.37
2023-04-15T08:46:07.446Z,11.41
2023-04-15T08:47:09.477Z,11.43
2023-04-15T08:48:16.846Z,11.45
2023-04-15T08:49:20.758Z,11.47
2023-04-15T08:50:22.839Z,11.49
2023-04-15T08:51:26.430Z,11.51
2023-04-15T08:52:28.536Z,11.56
2023-04-15T08:53:31.494Z,11.62
2023-04-15T08:54:34.065Z,11.64
2023-04-15T08:55:37.956Z,11.68
2023-04-15T08:56:41.054Z,11.72
2023-04-15T08:57:43.200Z,11.77
2023-04-15T08:58:46.335Z,11.83
2023-04-15T08:59:48.464Z,11.89
2023-04-15T09:00:52.590Z,11.96
2023-04-15T09:01:55.369Z,12.00
2023-04-15T09:02:58.188Z,12.07
2023-04-15T09:04:00.182Z,12.11
2023-04-15T09:05:04.989Z,12.16
2023-04-15T09:06:06.952Z,12.20
2023-04-15T09:07:09.698Z,12.24
2023-04-15T09:08:12.146Z,12.29
2023-04-15T09:09:15.295Z,12.35
2023-04-15T09:10:17.335Z,12.42
2023-04-15T09:11:20.670Z,12.47
2023-04-15T09:12:23.331Z,12.51
2023-04-15T09:13:25.472Z,12.57
2023-04-15T09:14:32.123Z,12.61
2023-04-15T09:15:33.900Z,12.67
2023-04-15T09:16:58.842Z,12.74
2023-04-15T09:18:01.719Z,12.82
2023-04-15T09:19:20.801Z,12.89
2023-04-15T09:20:24.098Z,12.93
2023-04-15T09:21:27.722Z,12.97
2023-04-15T09:22:32.755Z,13.00
2023-04-15T09:23:35.905Z,13.01
2023-04-15T09:24:39.169Z,12.98
2023-04-15T09:25:43.198Z,13.01
2023-04-15T09:26:44.873Z,12.98
2023-04-15T09:27:49.752Z,12.97
2023-04-15T09:28:51.415Z,12.96
2023-04-15T09:29:54.940Z,12.99
2023-04-15T09:30:57.621Z,13.00
2023-04-15T09:32:10.857Z,13.03
2023-04-15T09:33:15.877Z,13.00
2023-04-15T09:34:17.963Z,12.98
2023-04-15T09:35:21.460Z,12.98
2023-04-15T09:36:25.204Z,12.99
2023-04-15T09:37:35.453Z,13.04
2023-04-15T09:38:56.128Z,13.06
2023-04-15T09:39:58.797Z,13.07
2023-04-15T09:41:00.583Z,13.07
2023-04-15T09:42:07.904Z,13.06
2023-04-15T09:43:13.043Z,13.07
2023-04-15T09:44:24.414Z,13.09
2023-04-15T09:45:29.578Z,13.13
2023-04-15T09:46:41.488Z,13.20
2023-04-15T09:47:45.684Z,13.27
2023-04-15T09:48:47.461Z,13.34
2023-04-15T09:49:57.571Z,13.41
2023-04-15T09:51:01.473Z,13.46
2023-04-15T09:52:06.278Z,13.48
2023-04-15T09:53:10.719Z,13.50
2023-04-15T09:54:12.439Z,13.51
2023-04-15T09:55:17.132Z,13.52
2023-04-15T09:56:22.966Z,13.50
2023-04-15T09:57:26.027Z,13.49
2023-04-15T09:58:29.184Z,13.48
2023-04-15T09:59:31.949Z,13.50
2023-04-15T10:00:34.749Z,13.51
2023-04-15T10:01:37.148Z,13.52
2023-04-15T10:02:41.518Z,13.55
2023-04-15T10:03:46.622Z,13.59
2023-04-15T10:04:49.563Z,13.59
2023-04-15T10:05:53.469Z,13.60
2023-04-15T10:06:55.212Z,13.62
2023-04-15T10:07:58.254Z,13.62
2023-04-15T10:09:00.039Z,13.65
2023-04-15T10:10:03.648Z,13.66
2023-04-15T10:11:07.952Z,13.68
2023-04-15T10:12:09.972Z,13.68
2023-04-15T10:13:16.000Z,13.70
2023-04-15T10:14:18.760Z,13.69
2023-04-15T10:15:22.328Z,13.68
2023-04-15T10:16:28.168Z,13.68
2023-04-15T10:17:33.635Z,13.66
2023-04-15T10:18:39.324Z,13.64
2023-04-15T10:19:42.890Z,13.64
2023-04-15T10:20:45.985Z,13.64
2023-04-15T10:21:47.887Z,13.60
2023-04-15T10:22:51.183Z,13.57
2023-04-15T10:23:53.096Z,13.52
2023-04-15T10:24:57.395Z,13.51
2023-04-15T10:25:59.498Z,13.49
2023-04-15T10:27:02.709Z,13.47
2023-04-15T10:28:05.573Z,13.47
2023-04-15T10:29:11.911Z,13.48
2023-04-15T10:30:13.766Z,13.52
2023-04-15T10:31:18.535Z,13.53
2023-04-15T10:32:21.138Z,13.51
2023-04-15T10:33:25.945Z,13.51
2023-04-15T10:34:27.905Z,13.51
2023-04-15T10:35:32.779Z,13.51
2023-04-15T10:36:34.570Z,13.52
2023-04-15T10:37:38.861Z,13.54
2023-04-15T10:38:41.938Z,13.53
2023-04-15T10:39:45.223Z,13.54
2023-04-15T10:40:48.199Z,13.51
2023-04-15T10:42:06.488Z,13.52
2023-04-15T10:43:26.337Z,13.50
2023-04-15T10:44:28.023Z,13.48
2023-04-15T10:45:34.688Z,13.47
2023-04-15T10:46:38.660Z,13.48
2023-04-15T10:47:41.642Z,13.48
2023-04-15T10:48:48.224Z,13.50
2023-04-15T10:49:52.773Z,13.49
2023-04-15T10:50:58.126Z,13.50
2023-04-15T10:52:01.012Z,13.48
2023-04-15T10:53:03.596Z,13.47
2023-04-15T10:54:10.671Z,13.46
2023-04-15T10:55:15.657Z,13.46
2023-04-15T10:56:17.623Z,13.49
2023-04-15T10:57:23.815Z,13.51
2023-04-15T10:58:25.997Z,13.51
2023-04-15T10:59:30.457Z,13.54
2023-04-15T11:00:32.891Z,13.50
2023-04-15T11:01:56.748Z,13.47
2023-04-15T11:03:00.911Z,13.45
2023-04-15T11:04:03.232Z,13.45
2023-04-15T11:05:06.676Z,13.45
2023-04-15T11:06:11.149Z,13.48
2023-04-15T11:07:12.875Z,13.50
2023-04-15T11:08:16.260Z,13.54
2023-04-15T11:09:32.568Z,13.60
2023-04-15T11:10:56.372Z,13.68
2023-04-15T11:12:08.446Z,13.70
2023-04-15T11:13:17.793Z,13.73
2023-04-15T11:14:20.488Z,13.75
2023-04-15T11:15:28.800Z,13.78
2023-04-15T11:16:31.532Z,13.79
2023-04-15T11:17:33.384Z,13.82
2023-04-15T11:18:36.319Z,13.83
2023-04-15T11:19:38.890Z,13.84
2023-04-15T11:20:43.012Z,13.85
2023-04-15T11:21:47.061Z,13.85
2023-04-15T11:22:48.930Z,13.86
2023-04-15T11:23:52.117Z,13.89
2023-04-15T11:24:53.823Z,13.96
2023-04-15T11:25:56.786Z,14.06
2023-04-15T11:26:59.859Z,14.21
2023-04-15T11:28:02.440Z,14.33
2023-04-15T11:29:05.352Z,14.44
2023-04-15T11:30:19.091Z,14.54
2023-04-15T11:31:23.899Z,14.59
2023-04-15T11:32:25.700Z,14.62
2023-04-15T11:33:28.409Z,14.62
2023-04-15T11:34:31.621Z,14.64
2023-04-15T11:35:34.572Z,14.69
2023-04-15T11:36:37.273Z,14.72
2023-04-15T11:37:40.455Z,14.78
2023-04-15T11:38:48.182Z,14.86
2023-04-15T11:39:49.877Z,14.94
2023-04-15T11:40:53.264Z,15.03
2023-04-15T11:41:55.048Z,15.12
2023-04-15T11:43:08.410Z,15.23
2023-04-15T11:44:18.083Z,15.34
2023-04-15T11:45:20.045Z,15.46
2023-04-15T11:46:23.582Z,15.54
2023-04-15T11:47:25.316Z,15.61
2023-04-15T11:48:29.589Z,15.65
2023-04-15T11:49:33.911Z,15.65
2023-04-15T11:50:37.224Z,15.62
2023-04-15T11:51:40.172Z,15.56
2023-04-15T11:52:52.807Z,15.48
2023-04-15T11:53:55.876Z,15.42
2023-04-15T11:55:03.524Z,15.37
2023-04-15T11:56:07.497Z,15.30
2023-04-15T11:57:09.272Z,15.25
2023-04-15T11:58:15.104Z,15.17
2023-04-15T11:59:18.880Z,15.10
2023-04-15T12:00:20.971Z,15.05
2023-04-15T12:01:32.514Z,14.97
2023-04-15T12:02:36.903Z,14.91
2023-04-15T12:03:40.918Z,14.87
2023-04-15T12:04:43.297Z,14.83
2023-04-15T12:06:06.136Z,14.75
2023-04-15T12:07:08.862Z,14.62
2023-04-15T12:08:12.249Z,14.53
2023-04-15T12:09:15.714Z,14.44
2023-04-15T12:10:17.998Z,14.33
2023-04-15T12:11:21.316Z,14.22
2023-04-15T12:12:28.279Z,14.11
2023-04-15T12:13:30.026Z,14.00
2023-04-15T12:14:36.623Z,13.90
2023-04-15T12:15:39.310Z,13.76
2023-04-15T12:16:48.646Z,13.67
2023-04-15T12:17:55.915Z,13.53
2023-04-15T12:18:59.083Z,13.44
2023-04-15T12:20:04.524Z,13.37
2023-04-15T12:21:10.799Z,13.33
2023-04-15T12:22:15.499Z,13.29
2023-04-15T12:23:20.928Z,13.29
2023-04-15T12:24:24.095Z,13.30
2023-04-15T12:25:34.667Z,13.29
2023-04-15T12:26:39.127Z,13.26
2023-04-15T12:27:42.496Z,13.23
2023-04-15T12:28:44.250Z,13.22
2023-04-15T12:29:47.193Z,13.17
2023-04-15T12:30:49.962Z,13.13
2023-04-15T12:31:53.860Z,13.10
2023-04-15T12:32:55.601Z,13.05
2023-04-15T12:33:58.609Z,13.02
2023-04-15T12:35:01.514Z,12.96
2023-04-15T12:36:03.366Z,12.94
2023-04-15T12:37:09.456Z,12.93
2023-04-15T12:38:11.188Z,12.89
2023-04-15T12:39:15.594Z,12.86
2023-04-15T12:40:17.328Z,12.83
2023-04-15T12:41:21.876Z,12.80
2023-04-15T12:42:23.573Z,12.67
2023-04-15T12:43:26.297Z,12.61
2023-04-15T12:44:29.561Z,12.56
2023-04-15T12:45:31.725Z,12.52
2023-04-15T12:46:34.930Z,12.50
2023-04-15T12:47:36.730Z,12.48
2023-04-15T12:48:39.417Z,12.44
2023-04-15T12:49:41.403Z,12.41
2023-04-15T12:50:44.166Z,12.38
2023-04-15T12:51:46.912Z,12.35
2023-04-15T12:52:48.631Z,12.30
2023-04-15T12:53:52.640Z,12.25
2023-04-15T12:54:56.056Z,12.20
2023-04-15T12:55:58.705Z,12.15
2023-04-15T12:57:05.474Z,12.09
2023-04-15T12:58:08.473Z,12.06
2023-04-15T12:59:11.526Z,12.05
2023-04-15T13:00:14.364Z,11.98
2023-04-15T13:01:17.083Z,11.92
2023-04-15T13:02:21.194Z,11.90
2023-04-15T13:03:24.151Z,11.92
2023-04-15T13:04:26.161Z,11.90
2023-04-15T13:05:28.895Z,11.87
2023-04-15T13:06:32.755Z,11.85
2023-04-15T13:07:35.429Z,11.81
2023-04-15T13:08:40.467Z,11.79
2023-04-15T13:09:45.493Z,11.75
2023-04-15T13:10:48.601Z,11.75
2023-04-15T13:11:52.652Z,11.73
2023-04-15T13:12:56.470Z,11.71
2023-04-15T13:13:59.128Z,11.65
2023-04-15T13:15:01.050Z,11.63
2023-04-15T13:16:03.814Z,11.61
2023-04-15T13:17:10.179Z,11.57
2023-04-15T13:18:11.911Z,11.50
2023-04-15T13:19:14.801Z,11.47
2023-04-15T13:20:17.394Z,11.46
2023-04-15T13:21:20.396Z,11.39
2023-04-15T13:22:22.136Z,11.36
2023-04-15T13:23:24.794Z,11.32
2023-04-15T13:24:26.475Z,11.23
2023-04-15T13:25:29.208Z,11.17
2023-04-15T13:26:32.794Z,11.10
2023-04-15T13:27:35.504Z,11.05
2023-04-15T13:28:37.437Z,11.01
2023-04-15T13:29:40.310Z,10.99
2023-04-15T13:30:42.878Z,10.97
2023-04-15T13:31:45.616Z,10.92
2023-04-15T13:32:48.691Z,10.93
2023-04-15T13:33:52.688Z,10.94
2023-04-15T13:34:56.146Z,10.95
2023-04-15T13:35:58.913Z,11.01
2023-04-15T13:37:06.615Z,11.02
2023-04-15T13:38:09.445Z,11.00
2023-04-15T13:39:12.267Z,10.95
2023-04-15T13:40:13.986Z,10.90
2023-04-15T13:41:16.645Z,10.84
2023-04-15T13:42:19.825Z,10.83
2023-04-15T13:43:22.672Z,10.77
2023-04-15T13:44:24.484Z,10.73
2023-04-15T13:45:27.257Z,10.69
2023-04-15T13:46:29.038Z,10.63
2023-04-15T13:47:31.712Z,10.62
2023-04-15T13:48:33.453Z,10.64
2023-04-15T13:49:36.184Z,10.66
2023-04-15T13:50:41.156Z,10.64